Stella, Missouri
Current Conditions -  °F | °C
As of 1:35 AM on Wednesday 26 Nov 2014 (Local Time) from KHFJ Reporting Station
Clear Clear  
Wind Chill: 25°   Ceiling: Unl
Heat Index: 32°   Visibility: 10mi
Dew Point: 23°   Wind: 8mph
Humidity: 69%   Direction: 140°SE
Pressure: 30"   Gusts: NA
Location:  36.76°N, 94.19°W
Report Text: KHFJ 260735Z AUTO 14007KT 10SM CLR 00/M05 A3000 RMK AO2
Loading
Personal Weather Stations






























Interactive Weather Map New forecast layout! Learn more

10-Day Weather Forecast

Advertisements
Track Severe Weather on mobile